sensor_id;sensor_type;location;lat;lon;timestamp;P1;durP1;ratioP1;P2;durP2;ratioP2
24206;SDS011;12351;52.284;9.160;2023-05-07T00:01:08;29.23;;;22.67;;
24206;SDS011;12351;52.284;9.160;2023-05-07T00:03:56;31.82;;;22.52;;
24206;SDS011;12351;52.284;9.160;2023-05-07T00:06:45;27.75;;;20.43;;
24206;SDS011;12351;52.284;9.160;2023-05-07T00:09:32;27.85;;;21.75;;
24206;SDS011;12351;52.284;9.160;2023-05-07T00:12:22;27.32;;;20.50;;
24206;SDS011;12351;52.284;9.160;2023-05-07T00:15:10;28.07;;;21.15;;
24206;SDS011;12351;52.284;9.160;2023-05-07T00:18:00;28.57;;;22.00;;
24206;SDS011;12351;52.284;9.160;2023-05-07T00:20:49;30.27;;;22.52;;
24206;SDS011;12351;52.284;9.160;2023-05-07T00:23:37;30.55;;;23.05;;
24206;SDS011;12351;52.284;9.160;2023-05-07T00:26:26;31.62;;;23.85;;
24206;SDS011;12351;52.284;9.160;2023-05-07T00:29:13;30.37;;;23.87;;
24206;SDS011;12351;52.284;9.160;2023-05-07T00:32:02;35.23;;;25.37;;
24206;SDS011;12351;52.284;9.160;2023-05-07T00:34:50;33.45;;;24.27;;
24206;SDS011;12351;52.284;9.160;2023-05-07T00:37:37;34.40;;;25.92;;
24206;SDS011;12351;52.284;9.160;2023-05-07T00:40:26;37.85;;;26.73;;
24206;SDS011;12351;52.284;9.160;2023-05-07T00:43:14;36.83;;;27.62;;
24206;SDS011;12351;52.284;9.160;2023-05-07T00:46:03;38.90;;;27.75;;
24206;SDS011;12351;52.284;9.160;2023-05-07T00:48:52;35.60;;;26.27;;
24206;SDS011;12351;52.284;9.160;2023-05-07T00:51:41;34.85;;;26.70;;
24206;SDS011;12351;52.284;9.160;2023-05-07T00:54:28;35.08;;;26.80;;
24206;SDS011;12351;52.284;9.160;2023-05-07T00:57:17;35.90;;;27.75;;
24206;SDS011;12351;52.284;9.160;2023-05-07T01:00:09;38.42;;;28.02;;
24206;SDS011;12351;52.284;9.160;2023-05-07T01:02:57;37.85;;;27.52;;
24206;SDS011;12351;52.284;9.160;2023-05-07T01:05:45;37.28;;;27.15;;
24206;SDS011;12351;52.284;9.160;2023-05-07T01:08:36;34.95;;;27.22;;
24206;SDS011;12351;52.284;9.160;2023-05-07T01:11:27;36.63;;;26.30;;
24206;SDS011;12351;52.284;9.160;2023-05-07T01:14:15;34.27;;;27.05;;
24206;SDS011;12351;52.284;9.160;2023-05-07T01:17:04;32.95;;;26.27;;
24206;SDS011;12351;52.284;9.160;2023-05-07T01:19:52;33.18;;;25.82;;
24206;SDS011;12351;52.284;9.160;2023-05-07T01:22:40;34.53;;;25.85;;
24206;SDS011;12351;52.284;9.160;2023-05-07T01:25:29;34.73;;;26.00;;
24206;SDS011;12351;52.284;9.160;2023-05-07T01:28:17;35.92;;;26.12;;
24206;SDS011;12351;52.284;9.160;2023-05-07T01:31:05;33.02;;;26.25;;
24206;SDS011;12351;52.284;9.160;2023-05-07T01:33:53;37.30;;;26.90;;
24206;SDS011;12351;52.284;9.160;2023-05-07T01:36:41;34.98;;;26.90;;
24206;SDS011;12351;52.284;9.160;2023-05-07T01:39:31;33.88;;;26.07;;
24206;SDS011;12351;52.284;9.160;2023-05-07T01:42:20;36.80;;;27.15;;
24206;SDS011;12351;52.284;9.160;2023-05-07T01:45:08;36.15;;;25.90;;
24206;SDS011;12351;52.284;9.160;2023-05-07T01:47:57;34.92;;;26.10;;
24206;SDS011;12351;52.284;9.160;2023-05-07T01:50:46;35.90;;;26.68;;
24206;SDS011;12351;52.284;9.160;2023-05-07T01:53:36;36.33;;;26.37;;
24206;SDS011;12351;52.284;9.160;2023-05-07T01:56:26;35.60;;;25.90;;
24206;SDS011;12351;52.284;9.160;2023-05-07T01:59:13;36.17;;;26.02;;
24206;SDS011;12351;52.284;9.160;2023-05-07T02:02:03;36.05;;;26.33;;
24206;SDS011;12351;52.284;9.160;2023-05-07T02:04:51;39.25;;;27.30;;
24206;SDS011;12351;52.284;9.160;2023-05-07T02:07:38;38.17;;;26.73;;
24206;SDS011;12351;52.284;9.160;2023-05-07T02:10:27;36.53;;;26.35;;
24206;SDS011;12351;52.284;9.160;2023-05-07T02:13:15;38.88;;;26.97;;
24206;SDS011;12351;52.284;9.160;2023-05-07T02:16:02;40.30;;;26.93;;
24206;SDS011;12351;52.284;9.160;2023-05-07T02:18:52;36.90;;;25.85;;
24206;SDS011;12351;52.284;9.160;2023-05-07T02:21:40;38.85;;;26.70;;
24206;SDS011;12351;52.284;9.160;2023-05-07T02:24:29;38.15;;;26.73;;
24206;SDS011;12351;52.284;9.160;2023-05-07T02:27:15;39.10;;;26.55;;
24206;SDS011;12351;52.284;9.160;2023-05-07T02:30:05;37.63;;;26.65;;
24206;SDS011;12351;52.284;9.160;2023-05-07T02:32:52;38.73;;;26.30;;
24206;SDS011;12351;52.284;9.160;2023-05-07T02:35:42;38.70;;;26.60;;
24206;SDS011;12351;52.284;9.160;2023-05-07T02:38:33;40.80;;;26.57;;
24206;SDS011;12351;52.284;9.160;2023-05-07T02:41:21;37.65;;;24.98;;
24206;SDS011;12351;52.284;9.160;2023-05-07T02:44:12;38.80;;;25.68;;
24206;SDS011;12351;52.284;9.160;2023-05-07T02:47:03;38.02;;;26.45;;
24206;SDS011;12351;52.284;9.160;2023-05-07T02:49:52;37.53;;;24.72;;
24206;SDS011;12351;52.284;9.160;2023-05-07T02:52:41;35.33;;;24.07;;
24206;SDS011;12351;52.284;9.160;2023-05-07T02:55:31;38.92;;;25.80;;
24206;SDS011;12351;52.284;9.160;2023-05-07T02:58:19;36.45;;;23.95;;
24206;SDS011;12351;52.284;9.160;2023-05-07T03:01:08;36.17;;;23.42;;
24206;SDS011;12351;52.284;9.160;2023-05-07T03:03:58;42.15;;;24.50;;
24206;SDS011;12351;52.284;9.160;2023-05-07T03:06:46;39.88;;;25.72;;
24206;SDS011;12351;52.284;9.160;2023-05-07T03:09:35;36.93;;;25.12;;
24206;SDS011;12351;52.284;9.160;2023-05-07T03:12:24;36.98;;;23.83;;
24206;SDS011;12351;52.284;9.160;2023-05-07T03:15:12;34.88;;;23.32;;
24206;SDS011;12351;52.284;9.160;2023-05-07T03:17:59;36.48;;;24.40;;
24206;SDS011;12351;52.284;9.160;2023-05-07T03:20:48;39.50;;;24.27;;
24206;SDS011;12351;52.284;9.160;2023-05-07T03:23:36;37.95;;;24.55;;
24206;SDS011;12351;52.284;9.160;2023-05-07T03:26:23;36.65;;;23.95;;
24206;SDS011;12351;52.284;9.160;2023-05-07T03:29:11;35.38;;;23.73;;
24206;SDS011;12351;52.284;9.160;2023-05-07T03:31:59;42.03;;;24.02;;
24206;SDS011;12351;52.284;9.160;2023-05-07T03:34:48;34.55;;;23.12;;
24206;SDS011;12351;52.284;9.160;2023-05-07T03:37:38;35.68;;;23.80;;
24206;SDS011;12351;52.284;9.160;2023-05-07T03:40:27;37.85;;;22.65;;
24206;SDS011;12351;52.284;9.160;2023-05-07T03:43:14;35.43;;;22.22;;
24206;SDS011;12351;52.284;9.160;2023-05-07T03:46:02;36.28;;;21.85;;
24206;SDS011;12351;52.284;9.160;2023-05-07T03:48:50;32.13;;;21.17;;
24206;SDS011;12351;52.284;9.160;2023-05-07T03:51:39;36.00;;;22.02;;
24206;SDS011;12351;52.284;9.160;2023-05-07T03:54:29;29.92;;;20.48;;
24206;SDS011;12351;52.284;9.160;2023-05-07T03:57:19;30.45;;;20.57;;
24206;SDS011;12351;52.284;9.160;2023-05-07T04:00:08;27.42;;;20.02;;
24206;SDS011;12351;52.284;9.160;2023-05-07T04:02:57;29.07;;;18.75;;
24206;SDS011;12351;52.284;9.160;2023-05-07T04:05:44;28.62;;;19.12;;
24206;SDS011;12351;52.284;9.160;2023-05-07T04:08:32;27.90;;;19.07;;
24206;SDS011;12351;52.284;9.160;2023-05-07T04:11:19;28.35;;;18.42;;
24206;SDS011;12351;52.284;9.160;2023-05-07T04:14:08;27.98;;;18.67;;
24206;SDS011;12351;52.284;9.160;2023-05-07T04:16:56;26.90;;;17.90;;
24206;SDS011;12351;52.284;9.160;2023-05-07T04:19:45;28.85;;;19.20;;
24206;SDS011;12351;52.284;9.160;2023-05-07T04:22:33;25.70;;;18.75;;
24206;SDS011;12351;52.284;9.160;2023-05-07T04:25:22;29.10;;;18.55;;
24206;SDS011;12351;52.284;9.160;2023-05-07T04:28:11;27.85;;;18.20;;
24206;SDS011;12351;52.284;9.160;2023-05-07T04:30:59;26.62;;;18.60;;
24206;SDS011;12351;52.284;9.160;2023-05-07T04:33:49;25.90;;;18.00;;
24206;SDS011;12351;52.284;9.160;2023-05-07T04:36:37;24.82;;;17.70;;
24206;SDS011;12351;52.284;9.160;2023-05-07T04:39:25;25.80;;;17.45;;
24206;SDS011;12351;52.284;9.160;2023-05-07T04:42:15;23.55;;;17.35;;
24206;SDS011;12351;52.284;9.160;2023-05-07T04:45:04;25.10;;;17.57;;
24206;SDS011;12351;52.284;9.160;2023-05-07T04:47:55;25.70;;;16.90;;
24206;SDS011;12351;52.284;9.160;2023-05-07T04:50:43;25.20;;;17.80;;
24206;SDS011;12351;52.284;9.160;2023-05-07T04:53:32;24.90;;;17.57;;
24206;SDS011;12351;52.284;9.160;2023-05-07T04:56:21;24.05;;;17.30;;
24206;SDS011;12351;52.284;9.160;2023-05-07T04:59:10;28.05;;;18.15;;
24206;SDS011;12351;52.284;9.160;2023-05-07T05:01:58;22.98;;;17.00;;
24206;SDS011;12351;52.284;9.160;2023-05-07T05:04:47;25.75;;;17.65;;
24206;SDS011;12351;52.284;9.160;2023-05-07T05:07:34;27.82;;;17.80;;
24206;SDS011;12351;52.284;9.160;2023-05-07T05:10:22;22.48;;;16.85;;
24206;SDS011;12351;52.284;9.160;2023-05-07T05:13:11;22.70;;;17.35;;
24206;SDS011;12351;52.284;9.160;2023-05-07T05:15:59;23.20;;;16.87;;
24206;SDS011;12351;52.284;9.160;2023-05-07T05:18:49;24.15;;;17.35;;
24206;SDS011;12351;52.284;9.160;2023-05-07T05:21:39;23.25;;;17.05;;
24206;SDS011;12351;52.284;9.160;2023-05-07T05:24:27;25.90;;;17.45;;
24206;SDS011;12351;52.284;9.160;2023-05-07T05:27:16;24.27;;;17.67;;
24206;SDS011;12351;52.284;9.160;2023-05-07T05:30:03;21.45;;;16.67;;
24206;SDS011;12351;52.284;9.160;2023-05-07T05:32:54;24.60;;;17.20;;
24206;SDS011;12351;52.284;9.160;2023-05-07T05:35:45;23.42;;;17.25;;
24206;SDS011;12351;52.284;9.160;2023-05-07T05:38:34;22.40;;;17.42;;
24206;SDS011;12351;52.284;9.160;2023-05-07T05:41:23;23.70;;;17.37;;
24206;SDS011;12351;52.284;9.160;2023-05-07T05:44:12;23.55;;;16.75;;
24206;SDS011;12351;52.284;9.160;2023-05-07T05:47:01;22.22;;;16.40;;
24206;SDS011;12351;52.284;9.160;2023-05-07T05:49:50;22.27;;;16.27;;
24206;SDS011;12351;52.284;9.160;2023-05-07T05:52:37;23.25;;;15.95;;
24206;SDS011;12351;52.284;9.160;2023-05-07T05:55:26;23.20;;;16.55;;
24206;SDS011;12351;52.284;9.160;2023-05-07T05:58:14;23.47;;;16.30;;
24206;SDS011;12351;52.284;9.160;2023-05-07T06:01:02;23.45;;;15.98;;
24206;SDS011;12351;52.284;9.160;2023-05-07T06:03:50;20.55;;;15.50;;
24206;SDS011;12351;52.284;9.160;2023-05-07T06:06:38;22.20;;;15.05;;
24206;SDS011;12351;52.284;9.160;2023-05-07T06:09:28;22.50;;;15.35;;
24206;SDS011;12351;52.284;9.160;2023-05-07T06:12:16;23.05;;;15.25;;
24206;SDS011;12351;52.284;9.160;2023-05-07T06:15:03;20.15;;;15.03;;
24206;SDS011;12351;52.284;9.160;2023-05-07T06:17:52;21.37;;;14.85;;
24206;SDS011;12351;52.284;9.160;2023-05-07T06:20:41;19.75;;;14.60;;
24206;SDS011;12351;52.284;9.160;2023-05-07T06:23:30;21.00;;;15.30;;
24206;SDS011;12351;52.284;9.160;2023-05-07T06:26:19;21.25;;;15.08;;
24206;SDS011;12351;52.284;9.160;2023-05-07T06:29:06;21.00;;;14.68;;
24206;SDS011;12351;52.284;9.160;2023-05-07T06:31:54;20.80;;;14.63;;
24206;SDS011;12351;52.284;9.160;2023-05-07T06:34:43;20.40;;;15.10;;
24206;SDS011;12351;52.284;9.160;2023-05-07T06:37:33;21.85;;;15.08;;
24206;SDS011;12351;52.284;9.160;2023-05-07T06:40:20;21.75;;;15.25;;
24206;SDS011;12351;52.284;9.160;2023-05-07T06:43:11;20.90;;;14.07;;
24206;SDS011;12351;52.284;9.160;2023-05-07T06:46:03;19.67;;;13.93;;
24206;SDS011;12351;52.284;9.160;2023-05-07T06:48:51;19.10;;;13.78;;
24206;SDS011;12351;52.284;9.160;2023-05-07T06:51:43;20.97;;;14.23;;
24206;SDS011;12351;52.284;9.160;2023-05-07T06:54:34;20.70;;;14.40;;
24206;SDS011;12351;52.284;9.160;2023-05-07T06:57:23;21.65;;;14.33;;
24206;SDS011;12351;52.284;9.160;2023-05-07T07:00:16;21.65;;;14.20;;
24206;SDS011;12351;52.284;9.160;2023-05-07T07:03:05;21.97;;;14.70;;
24206;SDS011;12351;52.284;9.160;2023-05-07T07:05:56;20.32;;;13.35;;
24206;SDS011;12351;52.284;9.160;2023-05-07T07:08:48;19.32;;;14.00;;
24206;SDS011;12351;52.284;9.160;2023-05-07T07:11:40;17.55;;;13.38;;
24206;SDS011;12351;52.284;9.160;2023-05-07T07:14:32;19.27;;;14.07;;
24206;SDS011;12351;52.284;9.160;2023-05-07T07:17:22;19.02;;;13.58;;
24206;SDS011;12351;52.284;9.160;2023-05-07T07:20:09;24.15;;;13.35;;
24206;SDS011;12351;52.284;9.160;2023-05-07T07:22:57;18.82;;;14.13;;
24206;SDS011;12351;52.284;9.160;2023-05-07T07:25:45;20.30;;;13.80;;
24206;SDS011;12351;52.284;9.160;2023-05-07T07:28:33;20.02;;;14.23;;
24206;SDS011;12351;52.284;9.160;2023-05-07T07:31:20;20.17;;;13.68;;
24206;SDS011;12351;52.284;9.160;2023-05-07T07:34:08;20.35;;;14.05;;
24206;SDS011;12351;52.284;9.160;2023-05-07T07:36:57;18.73;;;13.83;;
24206;SDS011;12351;52.284;9.160;2023-05-07T07:39:46;21.30;;;13.48;;
24206;SDS011;12351;52.284;9.160;2023-05-07T07:42:34;20.37;;;13.88;;
24206;SDS011;12351;52.284;9.160;2023-05-07T07:45:25;20.40;;;14.20;;
24206;SDS011;12351;52.284;9.160;2023-05-07T07:48:12;18.07;;;13.08;;
24206;SDS011;12351;52.284;9.160;2023-05-07T07:53:57;18.05;;;13.32;;
24206;SDS011;12351;52.284;9.160;2023-05-07T07:56:45;18.07;;;13.32;;
24206;SDS011;12351;52.284;9.160;2023-05-07T07:59:36;20.23;;;13.30;;
24206;SDS011;12351;52.284;9.160;2023-05-07T08:02:24;19.80;;;13.88;;
24206;SDS011;12351;52.284;9.160;2023-05-07T08:05:13;17.92;;;12.40;;
24206;SDS011;12351;52.284;9.160;2023-05-07T08:08:03;19.15;;;13.45;;
24206;SDS011;12351;52.284;9.160;2023-05-07T08:10:50;18.67;;;12.65;;
24206;SDS011;12351;52.284;9.160;2023-05-07T08:13:39;19.20;;;12.88;;
24206;SDS011;12351;52.284;9.160;2023-05-07T08:16:28;18.77;;;13.32;;
24206;SDS011;12351;52.284;9.160;2023-05-07T08:19:16;18.85;;;13.10;;
24206;SDS011;12351;52.284;9.160;2023-05-07T08:22:07;16.73;;;12.23;;
24206;SDS011;12351;52.284;9.160;2023-05-07T08:24:56;17.20;;;12.65;;
24206;SDS011;12351;52.284;9.160;2023-05-07T08:27:44;19.02;;;12.15;;
24206;SDS011;12351;52.284;9.160;2023-05-07T08:30:31;17.62;;;12.37;;
24206;SDS011;12351;52.284;9.160;2023-05-07T08:33:20;17.70;;;12.37;;
24206;SDS011;12351;52.284;9.160;2023-05-07T08:36:10;19.00;;;12.23;;
24206;SDS011;12351;52.284;9.160;2023-05-07T08:38:56;16.82;;;11.95;;
24206;SDS011;12351;52.284;9.160;2023-05-07T08:41:46;15.23;;;11.25;;
24206;SDS011;12351;52.284;9.160;2023-05-07T08:44:37;15.65;;;11.22;;
24206;SDS011;12351;52.284;9.160;2023-05-07T08:47:27;14.58;;;10.88;;
24206;SDS011;12351;52.284;9.160;2023-05-07T08:50:15;13.83;;;10.50;;
24206;SDS011;12351;52.284;9.160;2023-05-07T08:53:09;13.43;;;10.75;;
24206;SDS011;12351;52.284;9.160;2023-05-07T08:55:55;13.85;;;10.03;;
24206;SDS011;12351;52.284;9.160;2023-05-07T08:58:43;16.90;;;11.10;;
24206;SDS011;12351;52.284;9.160;2023-05-07T09:01:31;13.55;;;10.30;;
24206;SDS011;12351;52.284;9.160;2023-05-07T09:04:21;15.95;;;10.23;;
24206;SDS011;12351;52.284;9.160;2023-05-07T09:07:08;12.33;;;9.90;;
24206;SDS011;12351;52.284;9.160;2023-05-07T09:09:56;13.45;;;10.20;;
24206;SDS011;12351;52.284;9.160;2023-05-07T09:12:47;13.90;;;10.40;;
24206;SDS011;12351;52.284;9.160;2023-05-07T09:15:36;13.32;;;10.53;;
24206;SDS011;12351;52.284;9.160;2023-05-07T09:18:24;13.35;;;9.63;;
24206;SDS011;12351;52.284;9.160;2023-05-07T09:21:15;11.78;;;9.43;;
24206;SDS011;12351;52.284;9.160;2023-05-07T09:24:05;13.72;;;9.65;;
24206;SDS011;12351;52.284;9.160;2023-05-07T09:26:56;14.07;;;9.85;;
24206;SDS011;12351;52.284;9.160;2023-05-07T09:29:45;11.48;;;9.20;;
24206;SDS011;12351;52.284;9.160;2023-05-07T09:35:25;10.90;;;8.90;;
24206;SDS011;12351;52.284;9.160;2023-05-07T09:38:13;10.03;;;8.28;;
24206;SDS011;12351;52.284;9.160;2023-05-07T09:41:05;12.25;;;8.65;;
24206;SDS011;12351;52.284;9.160;2023-05-07T09:43:56;9.70;;;8.00;;
24206;SDS011;12351;52.284;9.160;2023-05-07T09:46:46;10.80;;;8.18;;
24206;SDS011;12351;52.284;9.160;2023-05-07T09:49:36;10.00;;;8.30;;
24206;SDS011;12351;52.284;9.160;2023-05-07T09:52:27;10.00;;;8.55;;
24206;SDS011;12351;52.284;9.160;2023-05-07T09:55:16;10.63;;;8.40;;
24206;SDS011;12351;52.284;9.160;2023-05-07T09:58:05;10.13;;;8.90;;
24206;SDS011;12351;52.284;9.160;2023-05-07T10:00:56;10.15;;;8.35;;
24206;SDS011;12351;52.284;9.160;2023-05-07T10:03:48;10.80;;;8.80;;
24206;SDS011;12351;52.284;9.160;2023-05-07T10:06:37;12.70;;;8.75;;
24206;SDS011;12351;52.284;9.160;2023-05-07T10:09:26;9.93;;;8.65;;
24206;SDS011;12351;52.284;9.160;2023-05-07T10:12:14;10.93;;;8.55;;
24206;SDS011;12351;52.284;9.160;2023-05-07T10:15:05;9.93;;;8.73;;
24206;SDS011;12351;52.284;9.160;2023-05-07T10:17:56;11.63;;;9.15;;
24206;SDS011;12351;52.284;9.160;2023-05-07T10:20:45;11.50;;;9.18;;
24206;SDS011;12351;52.284;9.160;2023-05-07T10:23:34;11.33;;;9.40;;
24206;SDS011;12351;52.284;9.160;2023-05-07T10:26:25;10.98;;;9.40;;
24206;SDS011;12351;52.284;9.160;2023-05-07T10:29:18;11.35;;;9.78;;
24206;SDS011;12351;52.284;9.160;2023-05-07T10:34:56;11.30;;;9.50;;
24206;SDS011;12351;52.284;9.160;2023-05-07T10:37:45;11.43;;;9.20;;
24206;SDS011;12351;52.284;9.160;2023-05-07T10:40:35;10.25;;;8.65;;
24206;SDS011;12351;52.284;9.160;2023-05-07T10:43:25;11.68;;;9.58;;
24206;SDS011;12351;52.284;9.160;2023-05-07T10:46:15;13.78;;;9.58;;
24206;SDS011;12351;52.284;9.160;2023-05-07T10:54:47;10.48;;;9.08;;
24206;SDS011;12351;52.284;9.160;2023-05-07T10:57:37;11.63;;;9.08;;
24206;SDS011;12351;52.284;9.160;2023-05-07T11:03:16;13.20;;;8.83;;
24206;SDS011;12351;52.284;9.160;2023-05-07T11:08:54;14.33;;;8.73;;
24206;SDS011;12351;52.284;9.160;2023-05-07T11:14:43;10.15;;;8.28;;
24206;SDS011;12351;52.284;9.160;2023-05-07T11:17:26;9.30;;;8.15;;
24206;SDS011;12351;52.284;9.160;2023-05-07T11:20:16;10.08;;;8.00;;
24206;SDS011;12351;52.284;9.160;2023-05-07T11:23:05;11.22;;;8.30;;
24206;SDS011;12351;52.284;9.160;2023-05-07T11:25:57;11.28;;;8.58;;
24206;SDS011;12351;52.284;9.160;2023-05-07T11:28:43;9.40;;;8.05;;
24206;SDS011;12351;52.284;9.160;2023-05-07T11:31:33;10.35;;;7.72;;
24206;SDS011;12351;52.284;9.160;2023-05-07T11:34:22;9.25;;;8.20;;
24206;SDS011;12351;52.284;9.160;2023-05-07T11:37:16;11.28;;;7.97;;
24206;SDS011;12351;52.284;9.160;2023-05-07T11:40:04;10.18;;;8.90;;
24206;SDS011;12351;52.284;9.160;2023-05-07T11:42:53;11.68;;;8.58;;
24206;SDS011;12351;52.284;9.160;2023-05-07T11:45:41;11.30;;;8.90;;
24206;SDS011;12351;52.284;9.160;2023-05-07T11:48:32;10.58;;;9.43;;
24206;SDS011;12351;52.284;9.160;2023-05-07T11:51:20;12.37;;;10.20;;
24206;SDS011;12351;52.284;9.160;2023-05-07T11:54:11;11.38;;;9.90;;
24206;SDS011;12351;52.284;9.160;2023-05-07T11:57:00;11.00;;;9.88;;
24206;SDS011;12351;52.284;9.160;2023-05-07T11:59:52;11.75;;;9.65;;
24206;SDS011;12351;52.284;9.160;2023-05-07T12:02:38;11.50;;;10.32;;
24206;SDS011;12351;52.284;9.160;2023-05-07T12:05:28;12.82;;;10.98;;
24206;SDS011;12351;52.284;9.160;2023-05-07T12:08:17;11.78;;;10.58;;
24206;SDS011;12351;52.284;9.160;2023-05-07T12:11:08;11.73;;;10.50;;
24206;SDS011;12351;52.284;9.160;2023-05-07T12:13:56;11.38;;;10.18;;
24206;SDS011;12351;52.284;9.160;2023-05-07T12:16:44;12.88;;;10.70;;
24206;SDS011;12351;52.284;9.160;2023-05-07T12:19:33;12.25;;;9.93;;
24206;SDS011;12351;52.284;9.160;2023-05-07T12:22:21;11.38;;;9.70;;
24206;SDS011;12351;52.284;9.160;2023-05-07T12:25:08;12.78;;;10.55;;
24206;SDS011;12351;52.284;9.160;2023-05-07T12:27:57;13.25;;;9.75;;
24206;SDS011;12351;52.284;9.160;2023-05-07T12:30:46;10.58;;;9.48;;
24206;SDS011;12351;52.284;9.160;2023-05-07T12:33:35;11.85;;;9.80;;
24206;SDS011;12351;52.284;9.160;2023-05-07T12:36:25;10.35;;;9.35;;
24206;SDS011;12351;52.284;9.160;2023-05-07T12:39:13;10.50;;;9.40;;
24206;SDS011;12351;52.284;9.160;2023-05-07T12:42:02;11.12;;;9.68;;
24206;SDS011;12351;52.284;9.160;2023-05-07T12:44:49;11.18;;;9.75;;
24206;SDS011;12351;52.284;9.160;2023-05-07T12:47:37;11.33;;;9.63;;
24206;SDS011;12351;52.284;9.160;2023-05-07T12:50:26;10.30;;;9.30;;
24206;SDS011;12351;52.284;9.160;2023-05-07T12:53:19;10.32;;;9.23;;
24206;SDS011;12351;52.284;9.160;2023-05-07T12:56:07;10.60;;;9.50;;
24206;SDS011;12351;52.284;9.160;2023-05-07T12:58:57;9.78;;;8.78;;
24206;SDS011;12351;52.284;9.160;2023-05-07T13:01:46;14.28;;;11.85;;
24206;SDS011;12351;52.284;9.160;2023-05-07T13:04:33;10.68;;;9.58;;
24206;SDS011;12351;52.284;9.160;2023-05-07T13:07:24;9.80;;;8.80;;
24206;SDS011;12351;52.284;9.160;2023-05-07T13:10:14;9.63;;;8.63;;
24206;SDS011;12351;52.284;9.160;2023-05-07T13:13:01;11.38;;;8.58;;
24206;SDS011;12351;52.284;9.160;2023-05-07T13:15:53;10.78;;;9.08;;
24206;SDS011;12351;52.284;9.160;2023-05-07T13:18:42;10.05;;;9.05;;
24206;SDS011;12351;52.284;9.160;2023-05-07T13:21:33;9.78;;;8.20;;
24206;SDS011;12351;52.284;9.160;2023-05-07T13:24:23;10.10;;;9.10;;
24206;SDS011;12351;52.284;9.160;2023-05-07T13:27:10;10.53;;;8.20;;
24206;SDS011;12351;52.284;9.160;2023-05-07T13:29:57;9.58;;;8.58;;
24206;SDS011;12351;52.284;9.160;2023-05-07T13:32:45;9.70;;;8.80;;
24206;SDS011;12351;52.284;9.160;2023-05-07T13:35:34;9.53;;;8.53;;
24206;SDS011;12351;52.284;9.160;2023-05-07T13:38:23;10.25;;;8.73;;
24206;SDS011;12351;52.284;9.160;2023-05-07T13:41:13;10.28;;;8.38;;
24206;SDS011;12351;52.284;9.160;2023-05-07T13:44:02;11.28;;;7.80;;
24206;SDS011;12351;52.284;9.160;2023-05-07T13:46:49;9.38;;;8.48;;
24206;SDS011;12351;52.284;9.160;2023-05-07T13:49:37;8.95;;;8.05;;
24206;SDS011;12351;52.284;9.160;2023-05-07T13:52:24;8.58;;;7.08;;
24206;SDS011;12351;52.284;9.160;2023-05-07T13:55:11;8.25;;;7.45;;
24206;SDS011;12351;52.284;9.160;2023-05-07T13:58:00;9.85;;;7.60;;
24206;SDS011;12351;52.284;9.160;2023-05-07T14:00:49;7.72;;;7.03;;
24206;SDS011;12351;52.284;9.160;2023-05-07T14:03:35;8.08;;;7.28;;
24206;SDS011;12351;52.284;9.160;2023-05-07T14:06:26;8.38;;;7.37;;
24206;SDS011;12351;52.284;9.160;2023-05-07T14:09:13;7.25;;;6.55;;
24206;SDS011;12351;52.284;9.160;2023-05-07T14:12:00;7.20;;;6.20;;
24206;SDS011;12351;52.284;9.160;2023-05-07T14:14:48;7.90;;;7.10;;
24206;SDS011;12351;52.284;9.160;2023-05-07T14:17:36;8.90;;;6.60;;
24206;SDS011;12351;52.284;9.160;2023-05-07T14:20:27;8.33;;;7.47;;
24206;SDS011;12351;52.284;9.160;2023-05-07T14:23:15;8.38;;;6.80;;
24206;SDS011;12351;52.284;9.160;2023-05-07T14:26:04;7.80;;;7.00;;
24206;SDS011;12351;52.284;9.160;2023-05-07T14:28:53;7.50;;;6.80;;
24206;SDS011;12351;52.284;9.160;2023-05-07T14:31:44;6.97;;;6.28;;
24206;SDS011;12351;52.284;9.160;2023-05-07T14:34:32;7.47;;;6.70;;
24206;SDS011;12351;52.284;9.160;2023-05-07T14:37:22;7.72;;;7.05;;
24206;SDS011;12351;52.284;9.160;2023-05-07T14:40:09;8.70;;;7.90;;
24206;SDS011;12351;52.284;9.160;2023-05-07T14:42:59;8.20;;;7.40;;
24206;SDS011;12351;52.284;9.160;2023-05-07T14:45:47;8.15;;;7.33;;
24206;SDS011;12351;52.284;9.160;2023-05-07T14:48:35;10.18;;;7.40;;
24206;SDS011;12351;52.284;9.160;2023-05-07T14:51:24;8.15;;;7.40;;
24206;SDS011;12351;52.284;9.160;2023-05-07T14:54:13;7.47;;;6.83;;
24206;SDS011;12351;52.284;9.160;2023-05-07T14:57:02;9.03;;;7.83;;
24206;SDS011;12351;52.284;9.160;2023-05-07T14:59:52;9.10;;;8.30;;
24206;SDS011;12351;52.284;9.160;2023-05-07T15:02:40;10.65;;;8.73;;
24206;SDS011;12351;52.284;9.160;2023-05-07T15:05:30;9.98;;;8.33;;
24206;SDS011;12351;52.284;9.160;2023-05-07T15:08:22;9.40;;;8.33;;
24206;SDS011;12351;52.284;9.160;2023-05-07T15:11:08;9.28;;;8.38;;
24206;SDS011;12351;52.284;9.160;2023-05-07T15:13:58;10.40;;;9.50;;
24206;SDS011;12351;52.284;9.160;2023-05-07T15:16:47;10.08;;;9.08;;
24206;SDS011;12351;52.284;9.160;2023-05-07T15:19:36;9.63;;;8.63;;
24206;SDS011;12351;52.284;9.160;2023-05-07T15:22:25;9.48;;;8.58;;
24206;SDS011;12351;52.284;9.160;2023-05-07T15:25:15;9.60;;;8.70;;
24206;SDS011;12351;52.284;9.160;2023-05-07T15:28:06;9.43;;;8.53;;
24206;SDS011;12351;52.284;9.160;2023-05-07T15:30:54;9.53;;;8.63;;
24206;SDS011;12351;52.284;9.160;2023-05-07T15:33:43;9.63;;;8.68;;
24206;SDS011;12351;52.284;9.160;2023-05-07T15:36:32;10.25;;;9.35;;
24206;SDS011;12351;52.284;9.160;2023-05-07T15:39:21;9.23;;;8.43;;
24206;SDS011;12351;52.284;9.160;2023-05-07T15:42:10;10.28;;;9.35;;
24206;SDS011;12351;52.284;9.160;2023-05-07T15:45:00;9.10;;;8.30;;
24206;SDS011;12351;52.284;9.160;2023-05-07T15:47:48;9.30;;;8.50;;
24206;SDS011;12351;52.284;9.160;2023-05-07T15:50:37;10.23;;;9.13;;
24206;SDS011;12351;52.284;9.160;2023-05-07T15:53:26;9.30;;;8.50;;
24206;SDS011;12351;52.284;9.160;2023-05-07T15:56:15;9.85;;;8.85;;
24206;SDS011;12351;52.284;9.160;2023-05-07T15:59:05;8.80;;;8.00;;
24206;SDS011;12351;52.284;9.160;2023-05-07T16:01:53;8.70;;;7.90;;
24206;SDS011;12351;52.284;9.160;2023-05-07T16:04:41;9.08;;;7.75;;
24206;SDS011;12351;52.284;9.160;2023-05-07T16:07:29;9.30;;;8.20;;
24206;SDS011;12351;52.284;9.160;2023-05-07T16:10:17;8.50;;;7.70;;
24206;SDS011;12351;52.284;9.160;2023-05-07T16:13:05;9.13;;;8.33;;
24206;SDS011;12351;52.284;9.160;2023-05-07T16:15:56;9.35;;;8.20;;
24206;SDS011;12351;52.284;9.160;2023-05-07T16:18:43;9.83;;;7.95;;
24206;SDS011;12351;52.284;9.160;2023-05-07T16:21:32;9.30;;;8.40;;
24206;SDS011;12351;52.284;9.160;2023-05-07T16:24:20;9.73;;;8.83;;
24206;SDS011;12351;52.284;9.160;2023-05-07T16:27:08;10.53;;;8.78;;
24206;SDS011;12351;52.284;9.160;2023-05-07T16:29:57;8.75;;;7.85;;
24206;SDS011;12351;52.284;9.160;2023-05-07T16:32:48;9.50;;;8.58;;
24206;SDS011;12351;52.284;9.160;2023-05-07T16:35:39;10.68;;;9.15;;
24206;SDS011;12351;52.284;9.160;2023-05-07T16:38:27;10.53;;;9.43;;
24206;SDS011;12351;52.284;9.160;2023-05-07T16:41:17;11.35;;;9.38;;
24206;SDS011;12351;52.284;9.160;2023-05-07T16:44:06;10.68;;;9.65;;
24206;SDS011;12351;52.284;9.160;2023-05-07T16:46:56;11.33;;;10.10;;
24206;SDS011;12351;52.284;9.160;2023-05-07T16:49:45;10.65;;;9.55;;
24206;SDS011;12351;52.284;9.160;2023-05-07T16:52:35;10.65;;;9.65;;
24206;SDS011;12351;52.284;9.160;2023-05-07T16:55:24;10.95;;;9.60;;
24206;SDS011;12351;52.284;9.160;2023-05-07T16:58:12;10.95;;;9.58;;